Time;durP1;ratioP1;P1;durP2;ratioP2;P2;SDS_P1;SDS_P2;PMS_P1;PMS_P2;Temp;Humidity;BMP_temperature;BMP_pressure;BME280_temperature;BME280_humidity;BME280_pressure;Samples;Min_cycle;Max_cycle;Signal;HPM_P1;HPM_P2
2022/02/19 00:01:02;;;;;;;5.50;1.92;;;;;;;9.27;52.35;98426.31;1957775;90;32978;-62
2022/02/19 00:04:09;;;;;;;2.95;0.93;;;;;;;9.19;52.01;98438.06;2014424;88;29340;-61
2022/02/19 00:07:13;;;;;;;4.85;1.22;;;;;;;9.12;52.24;98439.00;2014304;87;27985;-63
2022/02/19 00:10:23;;;;;;;3.53;1.13;;;;;;;9.04;51.85;98448.05;2014256;88;29052;-61
2022/02/19 00:13:31;;;;;;;3.45;1.45;;;;;;;8.99;51.62;98438.67;2016503;87;29682;-61
2022/02/19 00:16:37;;;;;;;5.00;1.30;;;;;;;8.90;51.79;98458.42;2016927;88;32991;-61
2022/02/19 00:19:47;;;;;;;2.50;1.00;;;;;;;8.83;52.02;98475.00;2017483;88;30385;-61
2022/02/19 00:22:58;;;;;;;2.52;1.45;;;;;;;8.76;51.19;98469.25;2016554;87;27910;-61
2022/02/19 00:26:04;;;;;;;2.60;1.05;;;;;;;8.69;51.62;98482.16;2016885;88;28710;-61
2022/02/19 00:29:08;;;;;;;3.83;1.00;;;;;;;8.62;51.87;98496.42;2016896;88;31032;-62
2022/02/19 00:32:17;;;;;;;3.27;1.20;;;;;;;8.57;51.56;98492.37;2017841;88;32971;-67
2022/02/19 00:35:25;;;;;;;5.45;1.05;;;;;;;8.51;51.67;98495.00;2016949;88;29413;-61
2022/02/19 00:38:36;;;;;;;2.80;1.00;;;;;;;8.45;51.40;98506.06;2016993;88;27894;-61
2022/02/19 00:41:49;;;;;;;2.47;0.90;;;;;;;8.41;50.64;98505.44;2016651;87;27898;-62
2022/02/19 00:45:00;;;;;;;3.62;1.05;;;;;;;8.41;50.12;98500.09;2016546;88;27976;-60
2022/02/19 00:48:08;;;;;;;4.17;1.02;;;;;;;8.44;50.46;98506.56;2016848;88;33011;-61
2022/02/19 00:51:18;;;;;;;2.47;0.88;;;;;;;8.45;50.49;98517.61;2018097;87;29390;-63
2022/02/19 00:54:26;;;;;;;4.42;0.90;;;;;;;8.46;50.45;98521.99;2016791;87;27907;-63
2022/02/19 00:57:36;;;;;;;3.25;1.40;;;;;;;8.47;50.05;98523.70;2017023;88;28709;-61
2022/02/19 01:00:50;;;;;;;4.42;1.02;;;;;;;8.50;49.99;98546.67;2016620;87;31679;-61
2022/02/19 01:03:58;;;;;;;3.40;1.02;;;;;;;8.54;49.60;98547.30;2016331;88;33348;-61
2022/02/19 01:07:04;;;;;;;2.70;0.98;;;;;;;8.54;49.43;98532.16;2016690;88;29334;-61
2022/02/19 01:10:14;;;;;;;3.00;1.05;;;;;;;8.53;49.55;98542.46;2016798;88;27811;-61
2022/02/19 01:13:20;;;;;;;4.58;1.07;;;;;;;8.51;49.34;98567.94;2016451;88;28905;-61
2022/02/19 01:16:24;;;;;;;5.25;1.37;;;;;;;8.49;48.90;98559.64;2016843;88;31208;-61
2022/02/19 01:19:34;;;;;;;3.77;0.90;;;;;;;8.45;49.24;98550.97;2016591;88;33828;-61
2022/02/19 01:22:42;;;;;;;4.97;1.00;;;;;;;8.42;49.10;98581.02;2016292;88;29751;-67
2022/02/19 01:25:48;;;;;;;5.83;0.90;;;;;;;8.39;48.78;98567.39;2017121;88;27812;-68
2022/02/19 01:28:59;;;;;;;4.45;0.90;;;;;;;8.39;49.00;98567.89;2016787;87;28634;-68
2022/02/19 01:32:06;;;;;;;5.70;1.40;;;;;;;8.32;48.81;98578.97;2019462;88;31220;-68
2022/02/19 01:35:09;;;;;;;5.95;1.15;;;;;;;8.27;48.87;98586.45;2019831;88;32967;-69
2022/02/19 01:38:11;;;;;;;3.67;1.42;;;;;;;8.21;48.66;98565.02;2019569;88;29353;-69
2022/02/19 01:41:14;;;;;;;3.55;0.98;;;;;;;8.19;48.54;98587.44;2019628;88;27721;-68
2022/02/19 01:44:16;;;;;;;8.60;1.52;;;;;;;8.15;48.98;98590.80;2019304;88;28779;-66
2022/02/19 01:47:19;;;;;;;4.72;1.25;;;;;;;8.09;49.19;98597.02;2009995;88;31019;-66
2022/02/19 01:50:29;;;;;;;4.20;1.02;;;;;;;8.05;49.30;98606.56;2019548;88;32958;-65
2022/02/19 01:53:40;;;;;;;4.28;1.40;;;;;;;8.01;49.35;98608.20;2016440;88;29681;-66
2022/02/19 01:56:53;;;;;;;3.27;1.05;;;;;;;7.96;49.58;98615.64;2007394;88;28065;-66
2022/02/19 02:00:06;;;;;;;4.60;1.12;;;;;;;7.89;49.60;98605.86;2016449;88;28823;-66
2022/02/19 02:03:12;;;;;;;7.22;1.37;;;;;;;7.81;49.25;98603.70;2016634;88;31034;-66
2022/02/19 02:06:19;;;;;;;4.20;1.10;;;;;;;7.77;49.12;98618.67;2016995;88;33601;-66
2022/02/19 02:09:30;;;;;;;3.60;1.10;;;;;;;7.73;49.13;98611.34;2016568;87;29538;-66
2022/02/19 02:12:39;;;;;;;4.65;1.40;;;;;;;7.71;48.62;98626.56;2016357;88;27940;-66
2022/02/19 02:15:44;;;;;;;5.85;1.50;;;;;;;7.70;48.83;98647.05;2016828;88;28756;-66
2022/02/19 02:18:49;;;;;;;7.50;1.32;;;;;;;7.70;48.81;98643.05;2016858;88;31746;-66
2022/02/19 02:21:59;;;;;;;4.65;1.12;;;;;;;7.74;48.83;98651.23;2017004;88;32951;-66
2022/02/19 02:25:05;;;;;;;3.98;1.30;;;;;;;7.79;48.66;98648.72;2016603;88;29343;-66
2022/02/19 02:28:13;;;;;;;5.30;1.30;;;;;;;7.84;48.67;98671.49;2007590;88;27965;-67
2022/02/19 02:31:18;;;;;;;4.37;1.35;;;;;;;7.87;48.44;98667.77;1996469;88;28681;-68
2022/02/19 02:34:23;;;;;;;;;;;;;;;7.89;48.59;98676.03;2019441;88;31083;-67
2022/02/19 02:37:27;;;;;;;7.62;1.40;;;;;;;7.90;48.20;98683.56;2007460;88;33031;-67
2022/02/19 02:40:32;;;;;;;5.35;1.72;;;;;;;7.89;48.49;98692.02;2020082;88;29355;-66
2022/02/19 02:43:35;;;;;;;6.72;1.20;;;;;;;7.88;48.44;98698.31;2020029;88;27638;-66
2022/02/19 02:46:38;;;;;;;4.03;1.17;;;;;;;7.86;47.86;98695.38;2020815;87;28654;-66
2022/02/19 02:49:50;;;;;;;7.42;1.70;;;;;;;7.82;47.23;98700.06;2016985;88;31085;-67
2022/02/19 02:52:59;;;;;;;5.28;1.55;;;;;;;7.79;47.35;98699.38;2016730;87;33400;-67
2022/02/19 02:56:05;;;;;;;8.88;1.10;;;;;;;7.72;46.58;98701.58;2017234;88;29350;-67
2022/02/19 02:59:10;;;;;;;6.20;0.98;;;;;;;7.63;47.16;98713.68;2017259;88;27894;-66
2022/02/19 03:02:15;;;;;;;8.60;1.50;;;;;;;7.55;46.91;98705.33;2017348;88;28695;-66
2022/02/19 03:05:24;;;;;;;6.47;1.70;;;;;;;7.45;47.13;98722.38;2017322;88;31047;-66
2022/02/19 03:08:33;;;;;;;3.00;1.10;;;;;;;7.35;46.71;98713.25;2016812;88;32903;-66
2022/02/19 03:11:38;;;;;;;4.60;1.40;;;;;;;7.23;46.49;98711.70;2017202;87;29400;-66
2022/02/19 03:14:46;;;;;;;8.63;1.57;;;;;;;7.14;46.55;98712.28;2014591;88;27894;-66
2022/02/19 03:17:55;;;;;;;10.20;1.30;;;;;;;7.07;46.29;98725.58;2014273;88;29187;-67
2022/02/19 03:21:00;;;;;;;9.95;1.42;;;;;;;6.98;45.42;98709.22;1964966;90;31040;-67
2022/02/19 03:24:14;;;;;;;4.35;1.20;;;;;;;6.96;45.80;98714.23;1965082;90;32987;-66
2022/02/19 03:27:25;;;;;;;7.55;1.27;;;;;;;6.90;45.58;98723.45;1957576;90;28006;-65
2022/02/19 03:30:31;;;;;;;4.92;1.32;;;;;;;6.83;45.78;98730.95;2014641;88;27813;-66
2022/02/19 03:33:35;;;;;;;7.03;1.62;;;;;;;6.77;45.97;98743.31;1964927;90;28650;-66
2022/02/19 03:36:41;;;;;;;12.00;1.70;;;;;;;6.69;45.83;98754.88;1945628;90;32376;-66
2022/02/19 03:39:45;;;;;;;5.78;1.50;;;;;;;6.62;45.78;98769.02;1957906;90;32971;-66
2022/02/19 03:42:48;;;;;;;7.72;1.92;;;;;;;6.55;46.27;98771.63;2017492;88;29350;-67
2022/02/19 03:45:50;;;;;;;3.10;1.35;;;;;;;6.47;46.09;98769.91;1967661;90;27980;-67
2022/02/19 03:49:07;;;;;;;9.38;1.42;;;;;;;6.36;46.19;98775.38;1960378;90;28677;-67
2022/02/19 03:52:11;;;;;;;4.80;1.67;;;;;;;6.32;46.04;98780.48;2016230;87;28498;-67
2022/02/19 03:55:14;;;;;;;7.83;1.50;;;;;;;6.28;46.26;98770.95;2016756;87;33009;-67
2022/02/19 03:58:16;;;;;;;8.88;1.60;;;;;;;6.24;46.34;98769.40;2017170;88;29359;-67
2022/02/19 04:01:19;;;;;;;4.83;1.60;;;;;;;6.20;45.96;98782.02;2017364;88;27933;-67
2022/02/19 04:04:21;;;;;;;7.12;1.20;;;;;;;6.17;46.39;98794.16;2017161;87;28650;-68
2022/02/19 04:07:23;;;;;;;5.05;1.47;;;;;;;6.14;46.42;98785.50;2017121;88;31103;-67
2022/02/19 04:10:25;;;;;;;4.67;1.57;;;;;;;6.10;46.59;98798.56;2017168;88;32958;-67
2022/02/19 04:13:27;;;;;;;6.45;1.47;;;;;;;6.08;46.54;98798.67;2016910;88;29943;-67
2022/02/19 04:16:30;;;;;;;4.97;1.27;;;;;;;6.08;46.29;98806.16;2017426;87;27945;-68
2022/02/19 04:19:32;;;;;;;5.08;0.98;;;;;;;6.10;46.25;98799.90;2020319;87;28651;-68
2022/02/19 04:22:35;;;;;;;7.25;1.65;;;;;;;6.13;45.75;98787.77;2017255;87;31001;-68
2022/02/19 04:25:37;;;;;;;6.28;1.42;;;;;;;6.16;46.03;98794.25;2017233;87;32948;-68
2022/02/19 04:28:40;;;;;;;2.70;1.10;;;;;;;6.17;46.06;98787.50;2017259;88;29363;-67
2022/02/19 04:31:42;;;;;;;4.10;1.07;;;;;;;6.14;45.89;98794.31;2017125;88;27913;-68
2022/02/19 04:34:45;;;;;;;5.83;1.50;;;;;;;6.11;45.53;98801.16;1967316;90;28756;-68
2022/02/19 04:37:47;;;;;;;5.08;1.57;;;;;;;6.12;45.91;98800.67;1959915;90;31067;-68
2022/02/19 04:40:56;;;;;;;8.15;1.27;;;;;;;6.10;45.97;98795.91;2014404;87;32969;-68
2022/02/19 04:44:01;;;;;;;3.80;0.95;;;;;;;6.06;46.03;98800.55;2017265;88;29351;-68
2022/02/19 04:47:07;;;;;;;6.33;2.30;;;;;;;6.01;46.09;98794.62;2017425;87;27815;-68
2022/02/19 04:50:22;;;;;;;5.05;1.10;;;;;;;5.95;46.12;98794.94;2014097;87;29098;-68
2022/02/19 04:53:30;;;;;;;6.67;1.42;;;;;;;5.90;46.21;98795.17;2014094;87;35481;-68
2022/02/19 04:56:32;;;;;;;3.00;1.00;;;;;;;5.83;46.31;98781.85;2017159;88;32972;-68
2022/02/19 04:59:34;;;;;;;9.38;1.65;;;;;;;5.78;46.24;98798.89;2017168;88;29308;-67
2022/02/19 05:02:36;;;;;;;5.35;1.45;;;;;;;5.76;46.35;98798.60;2017328;88;27722;-67
2022/02/19 05:05:38;;;;;;;5.62;1.62;;;;;;;5.71;46.25;98806.80;2017214;88;28668;-67
2022/02/19 05:08:42;;;;;;;6.53;1.47;;;;;;;5.68;46.26;98800.34;2017207;88;30998;-67
2022/02/19 05:11:44;;;;;;;4.97;1.57;;;;;;;5.64;46.48;98812.06;2017221;87;32969;-68
2022/02/19 05:14:46;;;;;;;6.92;1.52;;;;;;;5.58;46.36;98804.42;2016941;88;29399;-68
2022/02/19 05:17:51;;;;;;;4.30;1.45;;;;;;;5.57;46.43;98815.98;1967651;90;27740;-67
2022/02/19 05:20:53;;;;;;;7.22;1.45;;;;;;;5.53;46.37;98819.77;1960623;90;28695;-67
2022/02/19 05:23:55;;;;;;;6.58;1.37;;;;;;;5.48;46.50;98816.88;2017126;88;31047;-67
2022/02/19 05:26:57;;;;;;;6.28;1.32;;;;;;;5.44;46.63;98808.66;2000593;88;33073;-67
2022/02/19 05:30:00;;;;;;;6.08;1.50;;;;;;;5.41;46.67;98822.59;1967563;90;29343;-67
2022/02/19 05:33:03;;;;;;;4.47;1.65;;;;;;;5.40;46.63;98816.40;1960618;90;27788;-67
2022/02/19 05:36:06;;;;;;;4.92;1.17;;;;;;;5.38;46.67;98814.77;1960463;90;28664;-67
2022/02/19 05:39:08;;;;;;;3.87;1.30;;;;;;;5.38;46.51;98838.67;2017285;88;30664;-67
2022/02/19 05:42:12;;;;;;;5.87;1.65;;;;;;;5.41;46.43;98840.69;1967667;90;32976;-67
2022/02/19 05:45:14;;;;;;;5.60;1.33;;;;;;;5.43;46.65;98847.27;1960913;90;29352;-67
2022/02/19 05:48:17;;;;;;;5.17;1.32;;;;;;;5.41;46.58;98851.31;2017509;88;27601;-68
2022/02/19 05:51:19;;;;;;;4.45;1.52;;;;;;;5.39;46.70;98856.33;2000717;88;28704;-68
2022/02/19 05:54:23;;;;;;;6.53;1.45;;;;;;;5.37;46.70;98868.82;1967696;90;31064;-68
2022/02/19 05:57:26;;;;;;;4.95;1.37;;;;;;;5.38;46.53;98883.34;1960344;90;33024;-68
2022/02/19 06:00:28;;;;;;;8.25;1.60;;;;;;;5.42;45.94;98901.33;1960375;90;29382;-68
2022/02/19 06:03:30;;;;;;;6.67;1.37;;;;;;;5.51;45.32;98903.98;2017464;88;27802;-69
2022/02/19 06:06:32;;;;;;;7.83;1.55;;;;;;;5.58;44.63;98925.28;1967706;90;28679;-68
2022/02/19 06:09:35;;;;;;;3.45;1.27;;;;;;;5.65;45.12;98924.50;1960384;90;31102;-68
2022/02/19 06:12:38;;;;;;;6.03;1.47;;;;;;;5.70;44.42;98931.77;2017059;88;33018;-69
2022/02/19 06:15:40;;;;;;;3.92;1.42;;;;;;;5.74;44.64;98936.84;2017061;87;29395;-68
2022/02/19 06:18:43;;;;;;;4.80;1.40;;;;;;;5.75;44.70;98929.26;2017495;87;27779;-68
2022/02/19 06:21:52;;;;;;;;;;;;;;;5.77;44.89;98938.02;2016841;87;28740;-68
2022/02/19 06:24:54;;;;;;;6.60;1.45;;;;;;;5.77;44.99;98935.84;2017442;88;30963;-69
2022/02/19 06:27:57;;;;;;;11.00;1.70;;;;;;;5.75;44.83;98952.33;2017335;88;32940;-69
2022/02/19 06:30:59;;;;;;;4.08;1.45;;;;;;;5.77;44.65;98963.75;2017363;88;29334;-68
2022/02/19 06:34:02;;;;;;;5.90;1.98;;;;;;;5.80;44.92;98982.64;2017262;87;27990;-68
2022/02/19 06:37:11;;;;;;;6.37;2.33;;;;;;;5.82;45.13;98978.96;2014577;88;28624;-69
2022/02/19 06:40:16;;;;;;;6.58;1.52;;;;;;;5.86;45.16;98990.31;2017399;87;31007;-68
2022/02/19 06:43:18;;;;;;;5.40;1.20;;;;;;;5.91;45.21;98992.24;1948379;90;33052;-68
2022/02/19 06:46:20;;;;;;;3.95;1.65;;;;;;;5.98;45.44;98995.44;1968775;90;29352;-68
2022/02/19 06:49:23;;;;;;;4.37;1.42;;;;;;;6.11;45.50;99001.02;1967773;90;27805;-67
2022/02/19 06:52:25;;;;;;;5.70;1.40;;;;;;;6.26;45.48;99012.18;1960361;90;28795;-67
2022/02/19 06:55:27;;;;;;;4.97;1.75;;;;;;;6.44;45.49;99036.09;2017011;88;31107;-68
2022/02/19 06:58:30;;;;;;;6.85;2.05;;;;;;;6.58;45.55;99013.59;2017315;88;32982;-68
2022/02/19 07:01:32;;;;;;;7.50;1.67;;;;;;;6.73;45.33;99021.22;2020388;87;30672;-68
2022/02/19 07:04:34;;;;;;;6.92;1.52;;;;;;;6.82;45.01;99040.67;2017367;87;27619;-68
2022/02/19 07:07:37;;;;;;;5.47;1.17;;;;;;;6.86;44.27;99029.41;2017040;88;28706;-68
2022/02/19 07:10:39;;;;;;;6.90;1.60;;;;;;;6.87;44.06;99028.92;2017287;88;31030;-68
2022/02/19 07:13:42;;;;;;;4.53;1.40;;;;;;;6.84;44.05;99040.12;2017521;86;32967;-68
2022/02/19 07:16:45;;;;;;;3.20;1.00;;;;;;;6.81;43.63;99045.61;2019780;88;29366;-67
2022/02/19 07:19:47;;;;;;;5.08;1.50;;;;;;;6.89;43.64;99056.32;2019960;88;27599;-68
2022/02/19 07:22:53;;;;;;;5.47;1.60;;;;;;;7.01;43.77;99062.78;2019736;88;28658;-68
2022/02/19 07:25:54;;;;;;;6.87;1.55;;;;;;;7.08;43.84;99072.13;2019877;88;31025;-68
2022/02/19 07:28:57;;;;;;;4.90;1.55;;;;;;;7.15;43.85;99091.69;2019834;88;32939;-68
2022/02/19 07:31:59;;;;;;;9.93;1.67;;;;;;;7.15;43.26;99090.84;1999447;88;29327;-68
2022/02/19 07:35:03;;;;;;;4.97;1.00;;;;;;;7.22;42.90;99098.86;2019936;88;27846;-64
2022/02/19 07:38:11;;;;;;;6.03;1.50;;;;;;;7.54;43.52;99111.34;2016705;87;27955;-62
2022/02/19 07:41:15;;;;;;;2.93;0.97;;;;;;;8.04;43.41;99131.58;2017268;88;31033;-64
2022/02/19 07:44:20;;;;;;;5.47;1.35;;;;;;;8.48;42.26;99121.94;2016441;88;32968;-64
2022/02/19 07:47:32;;;;;;;3.22;1.10;;;;;;;8.83;41.85;99108.71;2016979;88;29348;-63
2022/02/19 08:00:56;;;;;;;8.25;1.87;;;;;;;9.83;40.69;99151.47;2017010;88;33407;-61
2022/02/19 08:04:05;;;;;;;3.75;1.40;;;;;;;9.69;40.78;99166.56;2016872;87;29353;-61
2022/02/19 08:07:10;;;;;;;10.03;2.33;;;;;;;9.87;41.29;99153.83;2017208;88;27856;-61
2022/02/19 08:10:14;;;;;;;;;;;;;;;10.13;40.19;99159.27;2019706;88;28651;-61
2022/02/19 08:13:21;;;;;;;4.17;1.67;;;;;;;10.36;40.10;99164.92;2017061;88;31022;-60
2022/02/19 08:16:25;;;;;;;5.80;1.52;;;;;;;10.59;39.80;99170.58;1986032;87;32810;-62
2022/02/19 08:19:32;;;;;;;6.12;1.30;;;;;;;10.76;39.75;99190.84;1971987;89;29385;-61
2022/02/19 08:22:37;;;;;;;5.25;1.30;;;;;;;10.94;39.62;99188.23;1948391;90;28005;-61
2022/02/19 08:25:43;;;;;;;5.90;2.25;;;;;;;11.09;37.81;99161.33;1972111;90;28645;-61
2022/02/19 08:28:49;;;;;;;4.62;1.80;;;;;;;11.06;38.62;99173.13;1968956;89;30916;-60
2022/02/19 08:31:56;;;;;;;;;;;;;;;10.92;39.46;99222.31;1979532;89;33011;-60
2022/02/19 08:35:08;;;;;;;3.95;1.00;;;;;;;10.96;39.03;99211.39;1978027;89;29352;-61
2022/02/19 08:38:15;;;;;;;7.67;1.50;;;;;;;10.89;38.53;99212.30;1977947;89;27955;-63
2022/02/19 08:41:19;;;;;;;5.28;1.12;;;;;;;10.91;39.08;99241.20;1978093;89;28642;-63
2022/02/19 08:44:25;;;;;;;2.22;0.90;;;;;;;10.85;38.81;99230.88;1978163;89;31037;-63
2022/02/19 08:47:30;;;;;;;4.62;1.32;;;;;;;10.77;39.00;99231.41;1978008;89;32987;-59
2022/02/19 08:50:37;;;;;;;4.30;1.35;;;;;;;10.66;38.60;99231.28;1978116;89;29353;-61
2022/02/19 08:53:43;;;;;;;5.10;1.40;;;;;;;10.54;38.41;99207.52;1977886;89;27727;-60
2022/02/19 08:56:50;;;;;;;4.65;1.47;;;;;;;10.35;39.03;99243.52;1977907;89;28646;-61
2022/02/19 09:00:01;;;;;;;4.22;1.27;;;;;;;10.27;39.13;99260.54;1949327;91;31256;-63
2022/02/19 09:03:05;;;;;;;5.28;1.10;;;;;;;10.26;39.04;99274.42;1950105;90;32835;-65
2022/02/19 09:06:11;;;;;;;3.72;1.32;;;;;;;10.16;38.66;99273.31;1949892;90;29329;-59
2022/02/19 09:09:21;;;;;;;3.02;1.20;;;;;;;9.99;38.74;99279.73;1949781;91;27943;-61
2022/02/19 09:12:28;;;;;;;3.87;0.95;;;;;;;9.82;38.38;99287.00;1949302;90;29042;-62
2022/02/19 09:15:33;;;;;;;3.67;0.90;;;;;;;9.63;38.64;99287.77;1953449;90;31040;-62
2022/02/19 09:18:39;;;;;;;2.40;1.15;;;;;;;9.44;38.77;99291.58;1957859;90;32993;-62
2022/02/19 09:21:46;;;;;;;4.95;1.20;;;;;;;9.35;38.90;99293.00;1957782;90;29340;-61
2022/02/19 09:24:50;;;;;;;4.75;1.37;;;;;;;9.32;39.03;99315.92;1981956;89;27951;-63
2022/02/19 09:27:57;;;;;;;5.95;1.20;;;;;;;9.33;38.91;99318.98;1982030;89;28671;-63
2022/02/19 09:31:01;;;;;;;4.87;1.57;;;;;;;9.33;39.12;99328.80;1981859;89;31024;-62
2022/02/19 09:34:12;;;;;;;5.55;1.30;;;;;;;9.38;39.38;99324.89;1981908;89;32995;-58
2022/02/19 09:37:18;;;;;;;7.42;1.35;;;;;;;9.46;39.33;99337.80;1981837;89;29322;-60
2022/02/19 09:40:41;;;;;;;3.45;1.40;;;;;;;9.54;38.99;99349.36;1981617;89;28043;-60
2022/02/19 09:43:46;;;;;;;5.33;1.42;;;;;;;9.62;39.41;99355.58;1982100;89;28667;-60
2022/02/19 09:46:54;;;;;;;1.65;0.75;;;;;;;9.75;39.53;99357.91;1981616;89;30831;-59
2022/02/19 09:50:04;;;;;;;2.25;1.22;;;;;;;9.87;39.57;99377.20;1981490;89;34160;-62
2022/02/19 09:53:15;;;;;;;7.72;1.50;;;;;;;9.95;39.58;99372.72;1981482;89;29984;-63
2022/02/19 09:56:27;;;;;;;7.30;1.82;;;;;;;9.97;39.20;99396.23;1981402;89;27916;-62
2022/02/19 09:59:30;;;;;;;3.33;1.60;;;;;;;9.98;39.09;99389.05;1981291;89;28852;-63
2022/02/19 10:02:35;;;;;;;6.03;1.80;;;;;;;9.99;39.05;99394.32;1981457;89;31034;-63
2022/02/19 10:05:42;;;;;;;4.30;1.50;;;;;;;10.04;39.36;99410.08;1984298;89;33578;-62
2022/02/19 10:08:47;;;;;;;4.17;1.50;;;;;;;10.06;38.99;99416.20;1981345;89;29368;-63
2022/02/19 10:11:55;;;;;;;3.80;1.42;;;;;;;10.08;39.06;99428.14;1984293;89;27902;-63
2022/02/19 10:15:02;;;;;;;5.95;1.30;;;;;;;10.06;39.18;99440.75;1981915;89;28715;-59
2022/02/19 10:18:24;;;;;;;3.20;1.27;;;;;;;10.00;39.27;99452.23;1963992;90;30937;-61
2022/02/19 10:21:29;;;;;;;3.45;1.65;;;;;;;9.93;39.21;99454.04;1963737;90;33847;-62
2022/02/19 10:24:37;;;;;;;1.45;0.80;;;;;;;9.88;39.48;99463.20;1957180;90;29393;-62
2022/02/19 10:28:07;;;;;;;2.17;0.98;;;;;;;9.82;39.40;99466.23;1995065;88;27891;-62
2022/02/19 10:31:18;;;;;;;2.22;1.07;;;;;;;9.80;39.64;99479.33;2016228;87;28716;-62
2022/02/19 10:34:22;;;;;;;3.45;1.32;;;;;;;9.79;39.69;99474.44;2016493;88;31041;-61
2022/02/19 10:37:28;;;;;;;4.37;2.10;;;;;;;9.78;39.55;99503.47;2016461;88;33032;-61
2022/02/19 10:40:46;;;;;;;6.00;2.30;;;;;;;9.78;39.60;99503.47;2016308;88;29639;-61
2022/02/19 10:43:52;;;;;;;3.35;1.55;;;;;;;9.81;39.78;99492.59;2016642;88;27964;-61
2022/02/19 10:47:00;;;;;;;3.20;1.62;;;;;;;9.83;39.69;99511.25;2016686;88;28780;-61
2022/02/19 10:50:16;;;;;;;5.78;1.60;;;;;;;9.87;39.73;99512.77;2013386;88;31067;-61
2022/02/19 10:53:31;;;;;;;4.25;1.05;;;;;;;9.87;39.82;99527.48;1996681;88;34070;-61
2022/02/19 10:56:41;;;;;;;4.22;1.42;;;;;;;9.87;39.80;99538.17;2016598;88;29348;-60
2022/02/19 10:59:49;;;;;;;3.87;1.40;;;;;;;9.86;39.66;99547.16;2016758;88;27997;-61
2022/02/19 11:02:55;;;;;;;4.33;1.50;;;;;;;9.84;39.79;99532.55;2017050;88;28679;-60
2022/02/19 11:06:01;;;;;;;5.20;1.50;;;;;;;9.80;39.67;99538.17;2016603;88;31026;-60
2022/02/19 11:09:09;;;;;;;6.80;1.17;;;;;;;9.81;40.17;99550.59;2016265;88;33027;-60
2022/02/19 11:12:14;;;;;;;4.05;1.30;;;;;;;9.84;39.73;99548.59;2016609;88;29340;-61
2022/02/19 11:15:26;;;;;;;7.58;1.47;;;;;;;9.85;39.48;99564.16;2017210;88;27797;-60
2022/02/19 11:18:39;;;;;;;2.60;1.22;;;;;;;9.82;39.67;99559.86;2016904;88;28743;-61
2022/02/19 11:21:48;;;;;;;3.52;1.25;;;;;;;9.85;39.63;99571.72;1993224;88;31035;-60
2022/02/19 11:24:55;;;;;;;8.58;2.72;;;;;;;9.81;39.35;99574.67;2017094;88;32965;-60
2022/02/19 11:28:14;;;;;;;9.13;3.45;;;;;;;9.70;39.60;99573.47;2016878;88;29345;-60
2022/02/19 11:31:29;;;;;;;6.97;2.80;;;;;;;9.70;39.73;99577.97;2016464;88;27989;-61
2022/02/19 11:34:37;;;;;;;5.58;2.47;;;;;;;9.64;39.54;99587.20;2016739;88;28657;-60
2022/02/19 11:37:42;;;;;;;5.83;3.70;;;;;;;9.60;39.80;99599.02;1996433;88;31036;-59
2022/02/19 11:40:51;;;;;;;11.75;4.20;;;;;;;9.53;39.83;99610.55;2017221;87;32948;-64
2022/02/19 11:43:57;;;;;;;6.85;2.30;;;;;;;9.47;39.92;99618.90;2016851;88;29391;-66
2022/02/19 11:47:03;;;;;;;4.78;1.85;;;;;;;9.41;39.63;99621.45;2016363;87;27792;-61
2022/02/19 11:50:33;;;;;;;5.55;1.17;;;;;;;9.36;40.11;99624.00;1993938;87;30143;-65
2022/02/19 11:53:46;;;;;;;5.50;1.30;;;;;;;9.32;40.08;99627.78;2029205;87;31019;-61
2022/02/19 11:56:58;;;;;;;6.35;1.57;;;;;;;9.26;40.16;99647.69;1965134;90;33627;-63
2022/02/19 12:00:04;;;;;;;5.12;1.25;;;;;;;9.22;40.21;99638.98;1957557;90;29374;-60
2022/02/19 12:03:33;;;;;;;6.47;1.42;;;;;;;9.22;40.21;99655.03;2020551;87;28022;-62
2022/02/19 12:06:45;;;;;;;5.47;1.42;;;;;;;9.23;40.37;99642.05;2029208;87;28819;-63
2022/02/19 12:10:11;;;;;;;6.05;1.50;;;;;;;9.23;40.22;99662.09;2020202;87;34780;-63
2022/02/19 12:13:18;;;;;;;6.20;1.52;;;;;;;9.22;40.43;99657.70;2020407;87;33176;-64
2022/02/19 12:16:39;;;;;;;7.03;1.60;;;;;;;9.17;40.32;99673.59;2020242;87;29380;-63
2022/02/19 12:20:09;;;;;;;6.60;1.77;;;;;;;9.10;40.28;99662.38;2019978;87;27790;-63
2022/02/19 12:23:19;;;;;;;5.47;1.60;;;;;;;9.10;40.45;99682.42;2017556;87;28798;-64
2022/02/19 12:26:23;;;;;;;6.00;2.37;;;;;;;9.07;40.20;99678.57;2017942;87;30870;-63
2022/02/19 12:29:46;;;;;;;3.25;1.40;;;;;;;9.05;40.24;99675.96;2017356;87;32950;-65
2022/02/19 12:32:58;;;;;;;6.70;1.57;;;;;;;9.03;40.49;99681.01;2016660;87;29992;-65
2022/02/19 12:36:07;;;;;;;3.77;1.57;;;;;;;9.00;40.37;99686.05;2017004;87;27823;-65
2022/02/19 12:39:17;;;;;;;4.78;1.32;;;;;;;8.97;40.48;99685.72;2016986;88;28665;-65
2022/02/19 12:42:29;;;;;;;2.65;1.35;;;;;;;8.91;40.34;99699.42;2016553;87;32317;-64
2022/02/19 12:45:37;;;;;;;4.50;1.35;;;;;;;8.87;40.53;99693.84;2016532;88;33499;-65
2022/02/19 12:48:45;;;;;;;7.87;1.37;;;;;;;8.87;40.59;99694.30;2007507;87;29385;-65
2022/02/19 12:51:59;;;;;;;8.45;1.60;;;;;;;8.88;40.68;99693.36;2017050;88;27805;-65
2022/02/19 12:55:17;;;;;;;5.55;1.30;;;;;;;8.92;40.48;99706.95;2016591;88;29092;-65
2022/02/19 12:58:23;;;;;;;4.65;1.05;;;;;;;8.96;40.47;99701.36;2016830;88;31080;-66
2022/02/19 13:01:31;;;;;;;6.53;1.72;;;;;;;8.99;40.06;99714.16;2016646;88;33174;-66
2022/02/19 13:04:43;;;;;;;5.28;2.25;;;;;;;8.99;40.12;99713.71;2017821;87;29325;-61
2022/02/19 13:07:49;;;;;;;4.33;1.98;;;;;;;8.99;40.12;99721.73;2016564;88;27846;-61
2022/02/19 13:11:01;;;;;;;5.87;2.12;;;;;;;9.00;39.77;99735.94;2016136;88;27848;-62
2022/02/19 13:14:12;;;;;;;6.55;1.52;;;;;;;9.02;39.93;99730.05;2015958;88;31082;-61
2022/02/19 13:17:19;;;;;;;4.92;1.30;;;;;;;9.00;39.79;99732.81;1996854;86;32927;-62
2022/02/19 13:20:31;;;;;;;4.65;1.85;;;;;;;8.99;39.64;99727.52;1981958;89;29387;-61
2022/02/19 13:23:41;;;;;;;;;;;;;;;8.97;39.52;99731.63;1983790;89;28029;-62
2022/02/19 13:26:48;;;;;;;4.25;1.17;;;;;;;9.00;39.69;99754.63;1981524;88;28811;-61
2022/02/19 13:30:02;;;;;;;6.20;2.90;;;;;;;9.03;39.50;99751.32;1981378;88;31186;-62
2022/02/19 13:33:07;;;;;;;7.50;2.40;;;;;;;9.05;39.58;99758.80;1981645;88;32971;-61
2022/02/19 13:36:11;;;;;;;6.42;2.60;;;;;;;9.06;39.24;99755.66;1981512;89;29343;-61
2022/02/19 13:39:20;;;;;;;5.90;2.00;;;;;;;9.04;39.68;99754.88;1972292;89;28016;-61
2022/02/19 13:42:53;;;;;;;5.40;1.70;;;;;;;9.05;39.46;99760.61;1981295;89;28664;-62
2022/02/19 13:45:57;;;;;;;4.50;1.98;;;;;;;9.03;39.29;99763.83;1982154;88;31027;-62
2022/02/19 13:49:06;;;;;;;3.40;1.85;;;;;;;8.96;39.49;99768.63;1995452;88;33114;-62
2022/02/19 13:52:33;;;;;;;8.68;4.80;;;;;;;8.91;39.18;99772.00;1982109;88;29319;-62
2022/02/19 13:55:51;;;;;;;12.37;2.27;;;;;;;8.86;39.82;99778.92;1981867;88;27808;-61
2022/02/19 13:58:59;;;;;;;7.10;1.62;;;;;;;8.86;39.75;99785.60;1981413;88;28677;-62
2022/02/19 14:02:15;;;;;;;5.37;1.60;;;;;;;8.86;39.73;99792.28;1982273;89;31080;-61
2022/02/19 14:05:27;;;;;;;3.75;1.65;;;;;;;8.86;39.53;99795.41;1982253;89;32975;-62
2022/02/19 14:08:36;;;;;;;2.50;1.40;;;;;;;8.84;39.51;99801.33;1981725;88;29307;-62
2022/02/19 14:11:42;;;;;;;3.45;1.45;;;;;;;8.77;39.49;99797.61;1982640;89;27961;-60
2022/02/19 14:14:51;;;;;;;14.47;2.58;;;;;;;8.76;39.52;99804.38;1982024;88;29102;-61
2022/02/19 14:18:02;;;;;;;5.00;1.80;;;;;;;8.74;39.45;99806.26;1982423;87;35664;-60
2022/02/19 14:21:24;;;;;;;7.20;2.00;;;;;;;8.74;39.70;99816.45;1981873;88;35679;-61
2022/02/19 14:24:28;;;;;;;4.05;2.40;;;;;;;8.75;39.82;99821.34;1982233;88;29282;-63
2022/02/19 14:28:02;;;;;;;4.37;1.50;;;;;;;8.77;39.93;99823.47;1982118;89;27892;-63
2022/02/19 14:31:12;;;;;;;6.87;1.47;;;;;;;8.76;39.90;99835.94;1980937;88;27953;-65
2022/02/19 14:34:18;;;;;;;6.17;2.77;;;;;;;8.76;39.89;99847.96;1981707;88;31054;-66
2022/02/19 14:37:26;;;;;;;7.03;2.90;;;;;;;8.73;40.04;99846.77;1981972;88;33019;-63
2022/02/19 14:40:38;;;;;;;8.15;2.45;;;;;;;8.72;39.91;99862.88;1982403;88;29316;-67
2022/02/19 14:43:44;;;;;;;10.10;3.55;;;;;;;8.69;40.23;99852.34;1982424;88;27848;-66
2022/02/19 14:46:53;;;;;;;11.75;3.90;;;;;;;8.70;40.36;99852.74;1982355;89;29334;-66
2022/02/19 14:50:01;;;;;;;26.60;8.80;;;;;;;8.69;40.22;99857.69;1982010;88;28126;-69
2022/02/19 14:53:04;;;;;;;16.20;6.78;;;;;;;8.66;40.52;99854.71;1985400;88;32814;-66
2022/02/19 14:56:11;;;;;;;12.35;5.15;;;;;;;8.65;40.51;99859.16;1973033;89;29366;-65
2022/02/19 14:59:19;;;;;;;17.75;7.40;;;;;;;8.60;40.44;99866.56;1982401;89;27732;-64
2022/02/19 15:02:31;;;;;;;14.75;5.42;;;;;;;8.55;40.78;99860.56;1983507;89;28712;-65